EHLW METAR and TAF | Updated Today

EHLW METAR

Leeuwarden Air Base

Observation time: 27 min. ago

EHLW 080655Z AUTO 19013KT 150V220 9999 BKN017 BKN021 OVC210 06/04 Q0992 WHT

Need help? Read our tutorial on how to read METARs or read the parsed version below.

Leeuwarden Air Base (EHLW) METAR

  • Weather conditions on Wed, 08 Dec 2021 06:55:00 +0000 (27 min. ago):
  • Present conditions: Dry
  • Clouds: Broken sky at 518 meters; broken sky at 640 meters; overcast sky at 6401 meters
  • Visibility: Greater than 10 km
  • Wind: 190 degrees at 13 knots
  • Temperature: 6 celsius
  • Dew point: 4 celsius
  • Pressure: 992 millibars
  • Remarks: None


Useful to know...

EHLW TAF

Leeuwarden Air Base

TAF COR EHLW 080508Z 0806/0818 18012KT 9999 FEW006 BKN010 BECMG 0806/0808 FEW015 SCT020
Observation time: 2:14 hr. ago
Need help? Read our tutorial on how to read TAFs or read the parsed version below.

Parsed version of TAF for Leeuwarden Air Base (EHLW)

  • From 08 December at 06:00 UTC, to day 08 of the month at 18:00 UTC
  • Clouds: A few at 183 meters; broken sky at 305 meters
  • Visibility: Greater than 10 km
  • Wind: 180 degrees at 12
  • Expected to arise soon, from 08 December at 06:00 UTC, to day 08 of the month at 08:00 UTC
  • Clouds: A few at 457 meters; scattered at 610 meters